Time;durP1;ratioP1;P1;durP2;ratioP2;P2;SDS_P1;SDS_P2;PMS_P1;PMS_P2;Temp;Humidity;BMP_temperature;BMP_pressure;BME280_temperature;BME280_humidity;BME280_pressure;Samples;Min_cycle;Max_cycle;Signal;HPM_P1;HPM_P2
2022/08/29 00:01:46;;;;;;;3.40;0.63;;;13.20;99.90;;;;;;5069296;28;20487;-94
2022/08/29 00:04:11;;;;;;;4.13;0.80;;;13.20;99.90;;;;;;5064310;28;20037;-93
2022/08/29 00:06:37;;;;;;;4.35;0.90;;;13.20;99.90;;;;;;5061873;28;20045;-93
2022/08/29 00:09:03;;;;;;;2.53;0.90;;;13.10;99.90;;;;;;5058486;28;20436;-92
2022/08/29 00:11:28;;;;;;;4.65;0.75;;;13.10;99.90;;;;;;5075204;28;20028;-93
2022/08/29 00:13:54;;;;;;;6.47;0.95;;;13.10;99.90;;;;;;5071583;28;20450;-94
2022/08/29 00:16:19;;;;;;;3.65;0.80;;;13.00;99.90;;;;;;5065927;28;20033;-93
2022/08/29 00:18:45;;;;;;;4.35;1.10;;;13.00;99.90;;;;;;5070099;28;20029;-94
2022/08/29 00:21:11;;;;;;;3.08;1.02;;;12.90;99.90;;;;;;5072709;28;20040;-94
2022/08/29 00:23:36;;;;;;;5.95;0.90;;;12.90;99.90;;;;;;5068141;28;20384;-94
2022/08/29 00:26:02;;;;;;;4.75;1.00;;;12.90;99.90;;;;;;5071987;28;20029;-94
2022/08/29 00:28:28;;;;;;;5.05;1.08;;;12.90;99.90;;;;;;5079837;28;20135;-92
2022/08/29 00:30:53;;;;;;;4.28;1.05;;;12.80;99.90;;;;;;5060221;28;20130;-93
2022/08/29 00:33:19;;;;;;;8.10;1.10;;;12.80;99.90;;;;;;5067564;28;20016;-94
2022/08/29 00:35:45;;;;;;;2.55;0.80;;;12.70;99.90;;;;;;5074701;28;20036;-94
2022/08/29 00:38:13;;;;;;;3.15;0.70;;;12.70;99.90;;;;;;5074760;28;20032;-93
2022/08/29 00:40:42;;;;;;;3.72;0.73;;;12.70;99.90;;;;;;5074873;28;20017;-94
2022/08/29 00:43:08;;;;;;;4.43;0.90;;;12.60;99.90;;;;;;5079304;28;20032;-93
2022/08/29 00:45:36;;;;;;;3.63;0.80;;;12.60;99.90;;;;;;5069515;28;20025;-94
2022/08/29 00:48:07;;;;;;;4.90;0.80;;;12.60;99.90;;;;;;5073007;28;20491;-94
2022/08/29 00:50:43;;;;;;;5.97;0.85;;;12.60;99.90;;;;;;5064355;28;20076;-93
2022/08/29 00:53:13;;;;;;;4.35;1.23;;;12.50;99.90;;;;;;5060674;28;20016;-94
2022/08/29 00:55:40;;;;;;;2.78;0.90;;;12.50;99.90;;;;;;5067837;28;20025;-94
2022/08/29 00:58:21;;;;;;;2.50;0.88;;;12.40;99.90;;;;;;5069425;28;20119;-93
2022/08/29 01:00:48;;;;;;;3.33;0.60;;;12.40;99.90;;;;;;5066874;28;20510;-93
2022/08/29 01:03:13;;;;;;;3.55;0.57;;;12.40;99.90;;;;;;5064691;28;20032;-94
2022/08/29 01:05:41;;;;;;;2.35;0.70;;;12.40;99.90;;;;;;5066797;28;20045;-94
2022/08/29 01:08:07;;;;;;;4.18;1.00;;;12.30;99.90;;;;;;5074353;28;20025;-92
2022/08/29 01:13:22;;;;;;;2.80;0.70;;;12.30;99.90;;;;;;5068327;28;20495;-94
2022/08/29 01:15:49;;;;;;;5.05;0.93;;;12.20;99.90;;;;;;5060991;28;20029;-94
2022/08/29 01:18:15;;;;;;;5.00;1.00;;;12.10;99.90;;;;;;5063591;28;20498;-93
2022/08/29 01:21:03;;;;;;;8.15;1.23;;;12.10;99.90;;;;;;5072297;28;20554;-94
2022/08/29 01:23:40;;;;;;;4.05;1.00;;;12.10;99.90;;;;;;5067062;28;20481;-94
2022/08/29 01:26:06;;;;;;;5.50;1.27;;;12.00;99.90;;;;;;5066821;28;20060;-95
2022/08/29 01:28:36;;;;;;;4.60;1.08;;;12.00;99.90;;;;;;5068838;28;20340;-93
2022/08/29 01:31:11;;;;;;;4.18;1.00;;;11.90;99.90;;;;;;5073868;28;20179;-94
2022/08/29 01:33:40;;;;;;;3.38;0.77;;;11.90;99.90;;;;;;5054875;28;20110;-95
2022/08/29 01:36:09;;;;;;;4.57;0.90;;;11.90;99.90;;;;;;5060894;28;20021;-94
2022/08/29 01:38:35;;;;;;;3.88;0.82;;;11.90;99.90;;;;;;5066878;28;20032;-95
2022/08/29 01:41:01;;;;;;;7.00;1.00;;;11.90;99.90;;;;;;5073174;28;20029;-93
2022/08/29 01:43:28;;;;;;;6.60;0.85;;;11.80;99.90;;;;;;5076198;28;20025;-94
2022/08/29 01:45:54;;;;;;;6.53;1.00;;;11.80;99.90;;;;;;5068277;28;20396;-94
2022/08/29 01:48:20;;;;;;;3.20;0.82;;;11.80;99.90;;;;;;5060753;28;20063;-93
2022/08/29 01:50:46;;;;;;;6.25;0.95;;;11.80;99.90;;;;;;5065166;28;20040;-93
2022/08/29 01:53:13;;;;;;;2.60;1.00;;;11.80;99.90;;;;;;5066222;28;20025;-93
2022/08/29 01:55:39;;;;;;;4.00;0.70;;;11.80;99.90;;;;;;5062051;28;20488;-93
2022/08/29 01:58:06;;;;;;;4.80;1.33;;;11.80;99.90;;;;;;5070901;28;20021;-94
2022/08/29 02:00:32;;;;;;;6.20;1.55;;;11.80;99.90;;;;;;5062038;28;20116;-93
2022/08/29 02:03:00;;;;;;;5.00;1.20;;;11.80;99.90;;;;;;5064521;28;20055;-93
2022/08/29 02:05:26;;;;;;;4.43;1.13;;;11.70;99.90;;;;;;5060032;28;20167;-93
2022/08/29 02:07:52;;;;;;;3.60;1.02;;;11.80;99.90;;;;;;5069665;28;20104;-94
2022/08/29 02:10:19;;;;;;;7.53;1.40;;;11.70;99.90;;;;;;5058485;28;20041;-93
2022/08/29 02:12:44;;;;;;;7.95;0.90;;;11.60;99.90;;;;;;5073239;28;20391;-94
2022/08/29 02:15:10;;;;;;;3.85;1.13;;;11.60;99.90;;;;;;5064286;28;20167;-94
2022/08/29 02:17:37;;;;;;;7.97;1.52;;;11.60;99.90;;;;;;5071540;28;20027;-94
2022/08/29 02:20:07;;;;;;;5.55;0.90;;;11.60;99.90;;;;;;5070098;28;20468;-94
2022/08/29 02:22:36;;;;;;;4.63;0.80;;;11.50;99.90;;;;;;5069410;28;20020;-93
2022/08/29 02:25:40;;;;;;;3.00;0.88;;;11.60;99.90;;;;;;5069014;28;20028;-94
2022/08/29 02:27:51;;;;;;;3.70;1.10;;;11.50;99.90;;;;;;5064395;28;20024;-94
2022/08/29 02:30:18;;;;;;;5.88;0.90;;;11.50;99.90;;;;;;5069053;28;20044;-92
2022/08/29 02:32:43;;;;;;;3.78;1.10;;;11.50;99.90;;;;;;5069816;28;20489;-94
2022/08/29 02:35:09;;;;;;;6.88;1.55;;;11.50;99.90;;;;;;5071689;28;20035;-93
2022/08/29 02:37:34;;;;;;;6.32;1.27;;;11.50;99.90;;;;;;5072667;28;20020;-93
2022/08/29 02:40:00;;;;;;;4.53;1.00;;;11.40;99.90;;;;;;5073548;28;20112;-93
2022/08/29 02:42:25;;;;;;;5.45;1.95;;;11.40;99.90;;;;;;5062786;28;20029;-93
2022/08/29 02:44:51;;;;;;;7.97;1.02;;;11.40;99.90;;;;;;5061896;28;20025;-94
2022/08/29 02:47:17;;;;;;;6.65;1.30;;;11.40;99.90;;;;;;5060301;28;20775;-93
2022/08/29 02:49:42;;;;;;;3.55;1.23;;;11.30;99.90;;;;;;5066100;28;20040;-94
2022/08/29 02:52:08;;;;;;;4.60;0.90;;;11.30;99.90;;;;;;5064683;28;20025;-93
2022/08/29 02:54:34;;;;;;;4.20;1.60;;;11.30;99.90;;;;;;5063112;28;20081;-95
2022/08/29 02:56:59;;;;;;;8.70;1.35;;;11.30;99.90;;;;;;5070715;28;20387;-92
2022/08/29 02:59:26;;;;;;;3.88;0.98;;;11.30;99.90;;;;;;5058353;28;20037;-93
2022/08/29 03:01:52;;;;;;;5.05;0.90;;;11.20;99.90;;;;;;5068865;28;20021;-93
2022/08/29 03:04:18;;;;;;;5.75;1.60;;;11.20;99.90;;;;;;5063659;28;20024;-92
2022/08/29 03:06:43;;;;;;;6.60;1.50;;;11.20;99.90;;;;;;5068865;28;20044;-93
2022/08/29 03:09:09;;;;;;;5.35;1.00;;;11.10;99.90;;;;;;5066470;28;20032;-92
2022/08/29 03:11:34;;;;;;;3.80;1.20;;;11.00;99.90;;;;;;5056699;28;20033;-93
2022/08/29 03:14:00;;;;;;;4.40;1.23;;;11.00;99.90;;;;;;5070277;28;20060;-94
2022/08/29 03:16:26;;;;;;;5.85;1.58;;;11.00;99.90;;;;;;5059922;28;20029;-93
2022/08/29 03:18:52;;;;;;;4.97;1.33;;;11.00;99.90;;;;;;5069420;28;20027;-93
2022/08/29 03:21:20;;;;;;;4.88;1.02;;;11.00;99.90;;;;;;5071443;28;20077;-92
2022/08/29 03:23:48;;;;;;;5.35;2.00;;;11.00;99.90;;;;;;5067035;28;20091;-94
2022/08/29 03:26:14;;;;;;;8.05;1.95;;;10.90;99.90;;;;;;5063241;28;20037;-93
2022/08/29 03:28:40;;;;;;;6.05;1.55;;;11.00;99.90;;;;;;5088000;28;20029;-92
2022/08/29 03:31:06;;;;;;;6.28;1.52;;;11.00;99.90;;;;;;5073509;28;20491;-92
2022/08/29 03:33:31;;;;;;;4.60;1.48;;;11.00;99.90;;;;;;5071211;28;20017;-93
2022/08/29 03:35:57;;;;;;;6.50;1.70;;;11.00;99.90;;;;;;5063738;28;20033;-93
2022/08/29 03:38:23;;;;;;;6.57;1.70;;;10.90;99.90;;;;;;5066446;28;20150;-91
2022/08/29 03:40:48;;;;;;;4.75;1.60;;;11.00;99.90;;;;;;5065791;28;20048;-92
2022/08/29 03:43:14;;;;;;;5.20;1.63;;;11.00;99.90;;;;;;5063474;28;20039;-93
2022/08/29 03:45:39;;;;;;;5.03;1.33;;;11.00;99.90;;;;;;5056093;28;20014;-93
2022/08/29 03:48:05;;;;;;;4.35;1.73;;;11.00;99.90;;;;;;5060716;28;20484;-93
2022/08/29 03:50:31;;;;;;;3.70;2.03;;;11.00;99.90;;;;;;5067382;28;20037;-93
2022/08/29 03:52:58;;;;;;;4.85;2.13;;;11.00;99.90;;;;;;5071198;28;20028;-93
2022/08/29 03:55:23;;;;;;;7.40;2.00;;;11.00;99.90;;;;;;5070178;28;20056;-92
2022/08/29 03:57:49;;;;;;;8.90;2.17;;;11.00;99.90;;;;;;5056462;28;20028;-92
2022/08/29 04:00:17;;;;;;;5.30;2.30;;;11.00;99.90;;;;;;5059666;28;20024;-93
2022/08/29 04:02:45;;;;;;;5.03;2.60;;;11.00;99.90;;;;;;5070788;28;20028;-93
2022/08/29 04:05:12;;;;;;;8.02;2.25;;;11.00;99.90;;;;;;5055629;28;20079;-95
2022/08/29 04:07:40;;;;;;;3.63;1.85;;;10.90;99.90;;;;;;5066412;28;20028;-93
2022/08/29 04:10:08;;;;;;;5.07;1.65;;;11.00;99.90;;;;;;5063688;28;20079;-93
2022/08/29 04:12:34;;;;;;;3.08;1.33;;;10.90;99.90;;;;;;5064623;28;20059;-93
2022/08/29 04:14:59;;;;;;;3.70;1.83;;;10.90;99.90;;;;;;5069415;28;20059;-92
2022/08/29 04:17:25;;;;;;;4.38;2.08;;;10.80;99.90;;;;;;5055984;28;20025;-94
2022/08/29 04:19:50;;;;;;;4.72;1.75;;;10.80;99.90;;;;;;5072496;28;20447;-93
2022/08/29 04:22:16;;;;;;;5.68;2.13;;;10.80;99.90;;;;;;5071528;28;20056;-92
2022/08/29 04:24:41;;;;;;;5.18;1.88;;;10.80;99.90;;;;;;5075094;28;20035;-94
2022/08/29 04:27:07;;;;;;;6.35;2.15;;;10.70;99.90;;;;;;5074316;28;20382;-93
2022/08/29 04:29:33;;;;;;;7.90;2.42;;;10.70;99.90;;;;;;5076061;28;20035;-92
2022/08/29 04:31:58;;;;;;;8.48;2.58;;;10.70;99.90;;;;;;5071037;28;20479;-94
2022/08/29 04:34:24;;;;;;;6.22;2.38;;;10.70;99.90;;;;;;5071950;28;20061;-93
2022/08/29 04:36:50;;;;;;;4.97;2.17;;;10.70;99.90;;;;;;5057343;28;20067;-93
2022/08/29 04:39:15;;;;;;;8.98;3.15;;;10.80;99.90;;;;;;5061405;28;20066;-92
2022/08/29 04:41:41;;;;;;;6.10;2.88;;;10.80;99.90;;;;;;5076750;28;20029;-92
2022/08/29 04:44:08;;;;;;;5.07;2.13;;;10.80;99.90;;;;;;5072353;28;20044;-92
2022/08/29 04:46:34;;;;;;;3.40;1.88;;;10.80;99.90;;;;;;5059107;28;20017;-93
2022/08/29 04:49:00;;;;;;;6.43;2.25;;;10.80;99.90;;;;;;5067660;28;20028;-93
2022/08/29 04:51:26;;;;;;;8.55;1.80;;;10.80;99.90;;;;;;5068780;28;20024;-92
2022/08/29 04:53:52;;;;;;;9.10;2.20;;;10.90;99.90;;;;;;5063445;28;20025;-94
2022/08/29 04:56:19;;;;;;;7.15;2.70;;;10.90;99.90;;;;;;5075523;28;20032;-92
2022/08/29 04:58:46;;;;;;;5.72;2.40;;;10.90;99.90;;;;;;5071831;28;20021;-92
2022/08/29 05:01:13;;;;;;;4.97;2.33;;;10.90;99.90;;;;;;5075917;28;20561;-93
2022/08/29 05:03:39;;;;;;;8.20;2.58;;;11.00;99.90;;;;;;5065512;28;20024;-92
2022/08/29 05:06:07;;;;;;;6.93;2.90;;;11.00;99.90;;;;;;5069969;28;20128;-91
2022/08/29 05:08:35;;;;;;;6.25;2.17;;;11.00;99.90;;;;;;5066298;28;20097;-93
2022/08/29 05:11:02;;;;;;;9.68;2.38;;;11.10;99.90;;;;;;5055646;28;20033;-92
2022/08/29 05:13:28;;;;;;;6.85;2.58;;;11.10;99.90;;;;;;5066104;28;20020;-93
2022/08/29 05:15:53;;;;;;;7.38;3.15;;;11.20;99.90;;;;;;5067272;28;21454;-93
2022/08/29 05:18:19;;;;;;;9.88;2.92;;;11.20;99.90;;;;;;5060398;28;20075;-93
2022/08/29 05:20:47;;;;;;;5.97;2.47;;;11.20;99.90;;;;;;5075221;28;20028;-92
2022/08/29 05:23:14;;;;;;;8.02;2.60;;;11.30;99.90;;;;;;5073578;28;20021;-94
2022/08/29 05:25:40;;;;;;;6.45;2.70;;;11.30;99.90;;;;;;5070717;28;20024;-93
2022/08/29 05:28:09;;;;;;;6.85;2.95;;;11.40;99.90;;;;;;5057134;28;20426;-93
2022/08/29 05:30:37;;;;;;;5.40;3.10;;;11.50;99.90;;;;;;5072559;28;20040;-93
2022/08/29 05:33:03;;;;;;;13.40;3.28;;;11.60;99.90;;;;;;5068874;28;20172;-93
2022/08/29 05:35:29;;;;;;;7.53;3.08;;;11.70;99.90;;;;;;5068540;28;20032;-93
2022/08/29 05:37:55;;;;;;;8.27;3.25;;;11.70;99.90;;;;;;5074574;28;20476;-93
2022/08/29 05:40:21;;;;;;;7.25;2.97;;;11.80;99.90;;;;;;5064029;28;20024;-93
2022/08/29 05:42:46;;;;;;;6.15;2.38;;;11.90;99.90;;;;;;5065749;28;20383;-93
2022/08/29 05:45:12;;;;;;;6.68;3.03;;;12.00;99.90;;;;;;5072761;28;20021;-93
2022/08/29 05:47:37;;;;;;;7.63;3.55;;;12.10;99.90;;;;;;5067462;28;20021;-94
2022/08/29 05:50:03;;;;;;;10.35;3.25;;;12.20;99.90;;;;;;5065689;28;20040;-92
2022/08/29 05:52:29;;;;;;;8.10;3.88;;;12.30;99.90;;;;;;5067576;28;20032;-92
2022/08/29 05:54:54;;;;;;;7.15;3.63;;;12.50;99.90;;;;;;5074666;28;20032;-93
2022/08/29 05:57:22;;;;;;;7.95;3.50;;;12.50;99.90;;;;;;5064528;28;20124;-95
2022/08/29 05:59:50;;;;;;;9.85;3.80;;;12.70;99.90;;;;;;5070392;28;20032;-92
2022/08/29 06:02:17;;;;;;;6.53;2.63;;;12.80;99.90;;;;;;5067708;28;20024;-93
2022/08/29 06:04:43;;;;;;;9.38;3.58;;;12.90;99.90;;;;;;5074008;28;20122;-92
2022/08/29 06:07:09;;;;;;;10.20;4.30;;;13.00;99.90;;;;;;5074370;28;20036;-94
2022/08/29 06:09:36;;;;;;;12.02;4.43;;;13.10;99.90;;;;;;5069025;28;20035;-94
2022/08/29 06:12:03;;;;;;;8.65;3.78;;;13.20;99.90;;;;;;5071889;28;20028;-93
2022/08/29 06:14:28;;;;;;;9.15;4.25;;;13.30;99.90;;;;;;5062090;28;20122;-94
2022/08/29 06:16:54;;;;;;;9.27;3.35;;;13.50;99.90;;;;;;5059111;28;20488;-93
2022/08/29 06:19:20;;;;;;;8.07;3.42;;;13.60;99.90;;;;;;5062983;28;20017;-95
2022/08/29 06:21:46;;;;;;;11.20;3.97;;;13.80;99.90;;;;;;5070491;28;20031;-93
2022/08/29 06:24:15;;;;;;;7.38;3.85;;;13.90;99.90;;;;;;5069286;28;20020;-94
2022/08/29 06:26:42;;;;;;;7.50;3.67;;;14.10;99.90;;;;;;5064339;28;20025;-94
2022/08/29 06:29:09;;;;;;;7.30;3.33;;;14.30;99.90;;;;;;5055204;28;20123;-93
2022/08/29 06:31:35;;;;;;;8.15;3.47;;;14.40;99.90;;;;;;5073111;28;20020;-92
2022/08/29 06:34:03;;;;;;;9.15;3.70;;;14.60;99.90;;;;;;5065771;28;20027;-93
2022/08/29 06:36:30;;;;;;;10.27;3.58;;;14.70;99.90;;;;;;5069204;28;20563;-93
2022/08/29 06:38:58;;;;;;;13.27;4.57;;;14.80;99.90;;;;;;5068918;28;20089;-93
2022/08/29 06:41:24;;;;;;;10.50;4.40;;;14.90;99.90;;;;;;5059257;28;20031;-94
2022/08/29 06:43:50;;;;;;;12.50;5.22;;;15.00;99.90;;;;;;5071222;28;20100;-93
2022/08/29 06:46:40;;;;;;;13.48;4.45;;;15.10;99.90;;;;;;5066778;28;20039;-93
2022/08/29 06:49:08;;;;;;;10.00;4.72;;;15.20;99.90;;;;;;5071244;28;20032;-93
2022/08/29 06:51:39;;;;;;;13.07;4.25;;;15.30;99.90;;;;;;5066603;28;20118;-93
2022/08/29 06:54:07;;;;;;;8.55;4.18;;;15.40;99.90;;;;;;5058190;28;20016;-94
2022/08/29 06:56:33;;;;;;;11.57;4.70;;;15.40;99.90;;;;;;5067584;28;20028;-94
2022/08/29 06:58:59;;;;;;;8.77;3.85;;;15.40;99.90;;;;;;5065210;28;20029;-93
2022/08/29 07:01:25;;;;;;;8.32;4.05;;;15.50;99.90;;;;;;5053274;28;20036;-93
2022/08/29 07:03:55;;;;;;;9.43;4.07;;;15.60;99.90;;;;;;5063646;28;20447;-93
2022/08/29 07:06:22;;;;;;;8.50;3.88;;;15.70;99.90;;;;;;5072181;28;20056;-93
2022/08/29 07:08:48;;;;;;;11.85;4.20;;;15.90;99.90;;;;;;5060037;28;20031;-94
2022/08/29 07:11:14;;;;;;;11.65;4.55;;;16.00;99.90;;;;;;5071242;28;20036;-93
2022/08/29 07:13:39;;;;;;;10.25;4.07;;;16.20;99.90;;;;;;5067284;28;20090;-93
2022/08/29 07:16:09;;;;;;;13.82;4.57;;;16.30;99.90;;;;;;5070283;28;20127;-93
2022/08/29 07:18:36;;;;;;;9.32;3.78;;;16.50;99.90;;;;;;5071022;28;20024;-94
2022/08/29 07:21:09;;;;;;;9.23;4.07;;;16.70;99.90;;;;;;5063738;28;20028;-93
2022/08/29 07:23:35;;;;;;;10.27;4.13;;;17.00;99.90;;;;;;5071586;28;20074;-94
2022/08/29 07:26:14;;;;;;;11.63;4.13;;;17.10;99.90;;;;;;5071023;28;20024;-93
2022/08/29 07:28:40;;;;;;;8.68;2.92;;;17.30;99.90;;;;;;5061507;28;20031;-94
2022/08/29 07:31:06;;;;;;;6.75;3.05;;;17.40;99.90;;;;;;5072319;28;20063;-93
2022/08/29 07:33:32;;;;;;;9.80;3.70;;;17.50;99.90;;;;;;5066743;28;20051;-94
2022/08/29 07:35:59;;;;;;;10.32;3.30;;;17.60;99.90;;;;;;5070349;28;20071;-94
2022/08/29 07:38:24;;;;;;;9.77;3.25;;;17.60;99.90;;;;;;5066202;28;20425;-93
2022/08/29 07:40:59;;;;;;;6.78;3.20;;;17.80;99.90;;;;;;5060827;28;20067;-93
2022/08/29 07:43:24;;;;;;;13.13;4.00;;;17.90;99.90;;;;;;5066898;28;20477;-89
2022/08/29 07:45:50;;;;;;;7.00;2.58;;;18.10;99.90;;;;;;5068347;28;20039;-90
2022/08/29 07:48:15;;;;;;;6.03;1.98;;;18.20;99.90;;;;;;5057018;28;20028;-89
2022/08/29 07:50:41;;;;;;;6.85;2.33;;;18.40;99.90;;;;;;5058764;28;20048;-88
2022/08/29 07:53:07;;;;;;;9.70;2.35;;;18.40;99.90;;;;;;5057560;28;20033;-90
2022/08/29 07:55:32;;;;;;;7.30;3.00;;;18.40;99.90;;;;;;5050399;28;21699;-88
2022/08/29 07:57:58;;;;;;;9.15;2.22;;;18.40;99.90;;;;;;5057220;28;20039;-87
2022/08/29 08:00:23;;;;;;;6.78;2.33;;;18.50;99.90;;;;;;5058690;28;20098;-87
2022/08/29 08:02:50;;;;;;;6.65;2.17;;;18.60;99.90;;;;;;5064343;28;20387;-87
2022/08/29 08:05:16;;;;;;;8.80;2.40;;;18.80;99.90;;;;;;5066314;28;20055;-87
2022/08/29 08:07:41;;;;;;;8.15;1.80;;;19.00;99.90;;;;;;5062895;28;20032;-88
2022/08/29 08:10:08;;;;;;;7.10;1.45;;;19.20;99.70;;;;;;5064687;28;20040;-89
2022/08/29 08:12:33;;;;;;;6.35;1.48;;;19.30;98.80;;;;;;5068569;28;20112;-87
2022/08/29 08:14:59;;;;;;;8.43;1.38;;;19.40;98.30;;;;;;5069370;28;20139;-88
2022/08/29 08:17:25;;;;;;;6.95;1.45;;;19.50;98.10;;;;;;5066800;28;20017;-88
2022/08/29 08:19:51;;;;;;;9.27;1.73;;;19.60;97.60;;;;;;5067479;28;20086;-87
2022/08/29 08:22:17;;;;;;;5.22;0.73;;;19.60;97.30;;;;;;5067688;28;20479;-88
2022/08/29 08:24:43;;;;;;;6.05;1.15;;;19.60;97.00;;;;;;5069082;28;20093;-87
2022/08/29 08:27:09;;;;;;;3.58;0.82;;;19.70;96.30;;;;;;5070906;28;20029;-87
2022/08/29 08:29:35;;;;;;;4.75;0.98;;;19.80;95.90;;;;;;5066415;28;20066;-87
2022/08/29 08:32:00;;;;;;;4.47;1.52;;;19.80;95.30;;;;;;5068384;28;20108;-88
2022/08/29 08:34:28;;;;;;;3.75;0.90;;;19.90;94.70;;;;;;5070867;28;20152;-87
2022/08/29 08:36:53;;;;;;;8.50;1.30;;;19.90;94.30;;;;;;5071349;28;20460;-87
2022/08/29 08:39:19;;;;;;;4.00;1.05;;;19.80;94.10;;;;;;5062898;28;20078;-88
2022/08/29 08:41:52;;;;;;;3.92;1.10;;;19.70;94.20;;;;;;5067280;28;20033;-90
2022/08/29 08:44:40;;;;;;;6.63;1.60;;;19.80;93.70;;;;;;5068741;28;20028;-89
2022/08/29 08:47:08;;;;;;;5.15;0.90;;;19.80;93.50;;;;;;5065893;28;20039;-89
2022/08/29 08:49:54;;;;;;;6.15;1.30;;;19.80;93.10;;;;;;5068661;28;20090;-88
2022/08/29 08:52:26;;;;;;;4.57;1.00;;;19.90;92.90;;;;;;5067887;28;20036;-88
2022/08/29 08:54:58;;;;;;;11.68;1.58;;;19.90;93.10;;;;;;5065240;28;20025;-88
2022/08/29 08:57:27;;;;;;;3.83;1.00;;;20.10;93.10;;;;;;5072465;28;20500;-88
2022/08/29 08:59:57;;;;;;;5.60;1.05;;;20.30;93.00;;;;;;5072940;28;20048;-89
2022/08/29 09:03:01;;;;;;;4.57;1.00;;;20.40;92.40;;;;;;5070905;28;20618;-84
2022/08/29 09:05:56;;;;;;;4.47;1.05;;;20.40;92.10;;;;;;5065406;28;20094;-84
2022/08/29 09:08:32;;;;;;;5.00;1.10;;;20.30;91.80;;;;;;5048882;28;20033;-92
2022/08/29 09:11:27;;;;;;;6.82;1.33;;;20.30;92.00;;;;;;5069952;28;20124;-92
2022/08/29 09:13:59;;;;;;;2.85;1.05;;;20.30;91.90;;;;;;5061952;28;20025;-94
2022/08/29 09:16:41;;;;;;;4.05;1.08;;;20.20;91.90;;;;;;5062728;28;20155;-92
2022/08/29 09:19:10;;;;;;;6.68;1.23;;;20.40;92.10;;;;;;5062387;28;20080;-92
2022/08/29 09:21:54;;;;;;;5.18;1.00;;;20.50;91.60;;;;;;5068887;28;20105;-94
2022/08/29 09:24:32;;;;;;;3.10;1.02;;;20.60;91.50;;;;;;5066947;28;20492;-93
2022/08/29 09:26:58;;;;;;;4.35;1.00;;;20.60;91.40;;;;;;5064508;28;20074;-93
2022/08/29 09:29:28;;;;;;;4.60;1.20;;;20.60;91.10;;;;;;5067807;28;20037;-93
2022/08/29 09:32:13;;;;;;;5.10;1.42;;;20.60;91.00;;;;;;5063543;28;20404;-94
2022/08/29 09:34:46;;;;;;;6.10;1.20;;;20.60;90.90;;;;;;5065629;28;20025;-94
2022/08/29 09:37:53;;;;;;;5.68;1.10;;;20.60;90.90;;;;;;5060681;28;20055;-92
2022/08/29 09:40:19;;;;;;;3.55;1.10;;;20.50;90.70;;;;;;5064053;28;20044;-93
2022/08/29 09:43:00;;;;;;;3.88;1.10;;;20.50;90.50;;;;;;5084183;28;20033;-91
2022/08/29 09:45:26;;;;;;;4.18;1.33;;;20.60;90.40;;;;;;5075565;28;20024;-92
2022/08/29 09:48:09;;;;;;;4.15;1.02;;;20.60;90.40;;;;;;5075396;28;20399;-92
2022/08/29 09:50:35;;;;;;;3.75;1.10;;;20.60;90.20;;;;;;5058870;28;20504;-91
2022/08/29 09:53:05;;;;;;;5.10;0.93;;;20.60;90.00;;;;;;5075866;28;20024;-92
2022/08/29 09:55:37;;;;;;;6.68;1.27;;;20.50;90.10;;;;;;5072303;28;20036;-92
2022/08/29 09:58:09;;;;;;;5.57;1.20;;;20.50;90.30;;;;;;5057982;28;20021;-93
2022/08/29 10:00:38;;;;;;;3.60;1.20;;;20.50;90.30;;;;;;5069303;28;20468;-93
2022/08/29 10:03:07;;;;;;;4.68;1.10;;;20.50;90.30;;;;;;5062121;28;20048;-92
2022/08/29 10:05:40;;;;;;;3.10;1.20;;;20.50;90.10;;;;;;5058928;28;20056;-94
2022/08/29 10:08:22;;;;;;;6.47;1.48;;;20.50;90.10;;;;;;5055237;28;20095;-93
2022/08/29 10:10:55;;;;;;;3.95;1.00;;;20.50;90.10;;;;;;5060065;28;20800;-93
2022/08/29 10:13:26;;;;;;;7.95;1.00;;;20.50;90.00;;;;;;5058120;28;20048;-94
2022/08/29 10:16:10;;;;;;;4.38;1.10;;;20.50;89.90;;;;;;5066043;28;20480;-93
2022/08/29 10:18:49;;;;;;;4.85;1.00;;;20.60;90.10;;;;;;5075111;28;20032;-92
2022/08/29 10:21:28;;;;;;;5.53;1.00;;;20.80;89.90;;;;;;5060727;28;20082;-92
2022/08/29 10:24:16;;;;;;;3.13;1.00;;;21.00;89.50;;;;;;5075848;28;20235;-92
2022/08/29 10:26:57;;;;;;;4.68;1.10;;;21.00;89.00;;;;;;5068664;28;20709;-92
2022/08/29 10:29:37;;;;;;;3.03;1.20;;;21.10;88.70;;;;;;5065307;28;20484;-93
2022/08/29 10:32:37;;;;;;;4.07;1.02;;;21.30;88.90;;;;;;5082108;28;20480;-94
2022/08/29 10:35:05;;;;;;;3.85;1.08;;;21.60;88.00;;;;;;5071800;28;20555;-92
2022/08/29 10:37:57;;;;;;;6.30;1.25;;;21.80;86.80;;;;;;5072261;28;20016;-93
2022/08/29 10:40:46;;;;;;;3.50;1.13;;;21.80;85.30;;;;;;5062375;28;20035;-92
2022/08/29 10:43:37;;;;;;;3.90;1.10;;;21.80;85.40;;;;;;5071572;28;20024;-92
2022/08/29 10:46:31;;;;;;;3.60;1.05;;;21.80;85.60;;;;;;5063242;28;20024;-91
2022/08/29 10:49:22;;;;;;;3.95;0.98;;;22.10;85.50;;;;;;5062032;28;20116;-92
2022/08/29 10:52:12;;;;;;;3.83;1.27;;;22.40;85.50;;;;;;5071855;28;20024;-91
2022/08/29 10:55:02;;;;;;;4.18;1.00;;;22.70;84.00;;;;;;5063557;28;20028;-93
2022/08/29 10:57:49;;;;;;;4.22;1.00;;;22.70;82.50;;;;;;5054905;28;20064;-92
2022/08/29 11:00:30;;;;;;;5.25;1.05;;;22.60;82.00;;;;;;5057400;28;20379;-91
2022/08/29 11:03:24;;;;;;;4.25;0.90;;;22.50;81.70;;;;;;5065615;28;20031;-93
2022/08/29 11:06:00;;;;;;;3.47;0.90;;;22.40;81.00;;;;;;5063883;28;20416;-93
2022/08/29 11:08:32;;;;;;;3.88;0.85;;;22.30;80.70;;;;;;5066999;28;20084;-92
2022/08/29 11:10:57;;;;;;;5.70;1.00;;;22.10;81.20;;;;;;5070293;28;20062;-91
2022/08/29 11:13:39;;;;;;;4.78;1.02;;;22.00;81.70;;;;;;5067853;28;20068;-92
2022/08/29 11:16:20;;;;;;;6.20;1.10;;;21.90;82.20;;;;;;5075496;28;20024;-91
2022/08/29 11:18:49;;;;;;;3.63;1.20;;;21.90;82.70;;;;;;5070075;28;20458;-91
2022/08/29 11:21:23;;;;;;;5.25;1.30;;;21.90;82.10;;;;;;5068348;28;21560;-92
2022/08/29 11:23:48;;;;;;;3.08;0.95;;;21.90;81.90;;;;;;5070438;28;20025;-93
2022/08/29 11:26:42;;;;;;;4.45;0.73;;;21.80;82.00;;;;;;5061101;28;20476;-94
2022/08/29 11:29:29;;;;;;;5.28;1.00;;;22.00;82.40;;;;;;5057921;28;20021;-94
2022/08/29 11:32:22;;;;;;;4.45;0.77;;;22.30;81.70;;;;;;5069512;28;20024;-94
2022/08/29 11:35:06;;;;;;;6.35;0.85;;;22.50;81.30;;;;;;5059151;28;20025;-94
2022/08/29 11:37:46;;;;;;;4.57;1.13;;;22.50;81.30;;;;;;5067195;28;20534;-94
2022/08/29 11:40:24;;;;;;;4.50;1.00;;;22.50;81.10;;;;;;5067054;28;20395;-93
2022/08/29 11:42:51;;;;;;;3.80;1.00;;;22.50;80.10;;;;;;5072219;28;20036;-93
2022/08/29 11:45:25;;;;;;;3.13;0.85;;;22.60;80.20;;;;;;5065110;28;20035;-93
2022/08/29 11:48:17;;;;;;;3.55;0.93;;;22.60;79.90;;;;;;5068075;28;20825;-94
2022/08/29 11:50:43;;;;;;;3.50;0.65;;;22.40;79.40;;;;;;5066430;28;20032;-93
2022/08/29 11:53:32;;;;;;;7.07;0.85;;;22.10;80.40;;;;;;5059115;28;20021;-92
2022/08/29 11:56:13;;;;;;;4.28;1.10;;;22.10;81.50;;;;;;5065256;28;20040;-94
2022/08/29 11:58:44;;;;;;;4.85;0.98;;;22.30;81.20;;;;;;5073065;28;20075;-94
2022/08/29 12:01:31;;;;;;;3.90;0.85;;;22.50;80.30;;;;;;5061193;28;20021;-93
2022/08/29 12:03:57;;;;;;;3.67;0.85;;;22.80;80.30;;;;;;5063649;28;20036;-91
2022/08/29 12:06:30;;;;;;;3.80;1.02;;;23.30;79.40;;;;;;5062828;28;20076;-95
2022/08/29 12:09:11;;;;;;;3.30;1.00;;;23.40;77.60;;;;;;5069216;28;20024;-92
2022/08/29 12:12:04;;;;;;;19.20;1.63;;;23.30;76.90;;;;;;5073723;28;20032;-91
2022/08/29 12:14:34;;;;;;;4.43;1.20;;;23.10;77.10;;;;;;5074672;28;20384;-91
2022/08/29 12:17:03;;;;;;;2.75;0.95;;;22.80;76.30;;;;;;5078624;28;20033;-90
2022/08/29 12:19:58;;;;;;;4.30;0.88;;;22.60;76.50;;;;;;5063461;28;20387;-91
2022/08/29 12:22:48;;;;;;;4.57;1.20;;;22.40;77.00;;;;;;5057394;28;20070;-91
2022/08/29 12:25:25;;;;;;;2.70;0.85;;;22.30;77.50;;;;;;5074064;28;20025;-92
2022/08/29 12:28:03;;;;;;;7.43;1.10;;;22.20;77.20;;;;;;5069116;28;20472;-92
2022/08/29 12:30:42;;;;;;;4.82;0.80;;;22.10;77.60;;;;;;5055245;28;20093;-91
2022/08/29 12:33:47;;;;;;;4.32;0.90;;;22.20;78.30;;;;;;5057202;28;20075;-92
2022/08/29 12:36:15;;;;;;;4.65;1.25;;;22.30;78.10;;;;;;5059460;28;20029;-92
2022/08/29 12:38:53;;;;;;;4.43;1.00;;;22.30;77.30;;;;;;5063711;28;20024;-92
2022/08/29 12:41:56;;;;;;;4.07;1.15;;;22.30;77.30;;;;;;5074644;28;20473;-93
2022/08/29 12:44:34;;;;;;;4.75;1.10;;;22.50;76.90;;;;;;5065831;28;20092;-91
2022/08/29 12:47:05;;;;;;;5.53;0.95;;;22.40;76.70;;;;;;5060202;28;20519;-93
2022/08/29 12:49:51;;;;;;;5.88;1.20;;;22.40;76.50;;;;;;5063996;28;20037;-91
2022/08/29 12:52:37;;;;;;;4.53;1.10;;;22.30;76.60;;;;;;5060908;28;20118;-91
2022/08/29 12:55:24;;;;;;;3.70;0.85;;;22.30;77.30;;;;;;5066866;28;20116;-92
2022/08/29 12:57:51;;;;;;;4.32;1.02;;;22.30;77.80;;;;;;5062188;28;20024;-91
2022/08/29 13:00:25;;;;;;;5.18;1.10;;;22.40;77.80;;;;;;5072831;28;20421;-91
2022/08/29 13:03:00;;;;;;;4.97;1.02;;;22.50;77.30;;;;;;5069439;28;20484;-90
2022/08/29 13:05:28;;;;;;;5.80;1.17;;;22.60;77.00;;;;;;5059699;28;20121;-91
2022/08/29 13:07:55;;;;;;;6.13;1.15;;;22.80;76.40;;;;;;5068710;28;20101;-90